sensor_id;sensor_type;location;lat;lon;timestamp;temperature;humidity
42755;DHT22;28407;51.830;5.684;2023-04-01T00:01:54;11.60;90.10
42755;DHT22;28407;51.830;5.684;2023-04-01T00:03:55;11.60;90.20
42755;DHT22;28407;51.830;5.684;2023-04-01T00:05:57;11.60;90.20
42755;DHT22;28407;51.830;5.684;2023-04-01T00:07:58;11.60;90.20
42755;DHT22;28407;51.830;5.684;2023-04-01T00:09:58;11.60;90.20
42755;DHT22;28407;51.830;5.684;2023-04-01T00:11:59;11.60;90.20
42755;DHT22;28407;51.830;5.684;2023-04-01T00:14:00;11.60;90.20
42755;DHT22;28407;51.830;5.684;2023-04-01T00:16:00;11.60;90.20
42755;DHT22;28407;51.830;5.684;2023-04-01T00:18:02;11.60;90.20
42755;DHT22;28407;51.830;5.684;2023-04-01T00:20:03;11.50;90.20
42755;DHT22;28407;51.830;5.684;2023-04-01T00:22:04;11.60;90.20
42755;DHT22;28407;51.830;5.684;2023-04-01T00:24:04;11.60;90.20
42755;DHT22;28407;51.830;5.684;2023-04-01T00:26:05;11.60;90.20
42755;DHT22;28407;51.830;5.684;2023-04-01T00:28:05;11.60;90.20
42755;DHT22;28407;51.830;5.684;2023-04-01T00:30:07;11.60;90.20
42755;DHT22;28407;51.830;5.684;2023-04-01T00:32:08;11.60;90.20
42755;DHT22;28407;51.830;5.684;2023-04-01T00:34:09;11.60;90.20
42755;DHT22;28407;51.830;5.684;2023-04-01T00:36:10;11.60;90.20
42755;DHT22;28407;51.830;5.684;2023-04-01T00:38:11;11.60;90.20
42755;DHT22;28407;51.830;5.684;2023-04-01T00:40:27;11.60;90.20
42755;DHT22;28407;51.830;5.684;2023-04-01T00:42:28;11.70;90.50
42755;DHT22;28407;51.830;5.684;2023-04-01T00:44:31;11.70;90.50
42755;DHT22;28407;51.830;5.684;2023-04-01T00:46:33;11.70;90.20
42755;DHT22;28407;51.830;5.684;2023-04-01T00:48:36;11.70;90.20
42755;DHT22;28407;51.830;5.684;2023-04-01T00:50:41;11.70;90.20
42755;DHT22;28407;51.830;5.684;2023-04-01T00:52:43;11.70;90.20
42755;DHT22;28407;51.830;5.684;2023-04-01T00:54:46;11.70;90.20
42755;DHT22;28407;51.830;5.684;2023-04-01T00:56:50;11.70;90.20
42755;DHT22;28407;51.830;5.684;2023-04-01T00:59:02;11.70;90.10
42755;DHT22;28407;51.830;5.684;2023-04-01T01:01:06;11.70;90.10
42755;DHT22;28407;51.830;5.684;2023-04-01T01:03:08;11.70;90.20
42755;DHT22;28407;51.830;5.684;2023-04-01T01:05:13;11.70;90.20
42755;DHT22;28407;51.830;5.684;2023-04-01T01:07:37;11.70;90.20
42755;DHT22;28407;51.830;5.684;2023-04-01T01:12:15;11.70;90.20
42755;DHT22;28407;51.830;5.684;2023-04-01T01:14:51;11.70;90.10
42755;DHT22;28407;51.830;5.684;2023-04-01T01:22:08;11.70;90.10
42755;DHT22;28407;51.830;5.684;2023-04-01T01:25:04;11.80;90.10
42755;DHT22;28407;51.830;5.684;2023-04-01T01:27:17;11.80;90.10
42755;DHT22;28407;51.830;5.684;2023-04-01T01:29:33;11.70;90.00
42755;DHT22;28407;51.830;5.684;2023-04-01T01:32:01;11.80;90.10
42755;DHT22;28407;51.830;5.684;2023-04-01T01:34:36;11.80;90.10
42755;DHT22;28407;51.830;5.684;2023-04-01T01:36:42;11.80;90.10
42755;DHT22;28407;51.830;5.684;2023-04-01T01:38:47;11.80;90.10
42755;DHT22;28407;51.830;5.684;2023-04-01T01:40:50;11.80;90.10
42755;DHT22;28407;51.830;5.684;2023-04-01T01:42:58;11.80;90.10
42755;DHT22;28407;51.830;5.684;2023-04-01T01:45:01;11.80;90.10
42755;DHT22;28407;51.830;5.684;2023-04-01T01:47:03;11.80;90.10
42755;DHT22;28407;51.830;5.684;2023-04-01T01:49:05;11.80;90.10
42755;DHT22;28407;51.830;5.684;2023-04-01T01:51:07;11.80;90.10
42755;DHT22;28407;51.830;5.684;2023-04-01T01:53:11;11.80;90.10
42755;DHT22;28407;51.830;5.684;2023-04-01T01:55:33;11.80;90.10
42755;DHT22;28407;51.830;5.684;2023-04-01T01:57:36;11.90;90.10
42755;DHT22;28407;51.830;5.684;2023-04-01T01:59:42;11.90;90.10
42755;DHT22;28407;51.830;5.684;2023-04-01T02:01:56;11.80;90.10
42755;DHT22;28407;51.830;5.684;2023-04-01T02:03:59;11.80;90.10
42755;DHT22;28407;51.830;5.684;2023-04-01T02:06:04;11.80;90.10
42755;DHT22;28407;51.830;5.684;2023-04-01T02:10:13;11.80;90.10
42755;DHT22;28407;51.830;5.684;2023-04-01T02:12:15;11.90;90.10
42755;DHT22;28407;51.830;5.684;2023-04-01T02:14:20;11.90;90.10
42755;DHT22;28407;51.830;5.684;2023-04-01T02:16:26;11.90;90.10
42755;DHT22;28407;51.830;5.684;2023-04-01T02:18:29;11.80;90.10
42755;DHT22;28407;51.830;5.684;2023-04-01T02:20:30;11.80;90.10
42755;DHT22;28407;51.830;5.684;2023-04-01T02:22:34;11.80;90.10
42755;DHT22;28407;51.830;5.684;2023-04-01T02:24:35;11.80;90.10
42755;DHT22;28407;51.830;5.684;2023-04-01T02:26:39;11.80;90.10
42755;DHT22;28407;51.830;5.684;2023-04-01T02:28:41;11.80;90.10
42755;DHT22;28407;51.830;5.684;2023-04-01T02:30:44;11.80;90.00
42755;DHT22;28407;51.830;5.684;2023-04-01T02:32:45;11.80;90.10
42755;DHT22;28407;51.830;5.684;2023-04-01T02:34:47;11.80;90.10
42755;DHT22;28407;51.830;5.684;2023-04-01T02:36:50;11.70;90.10
42755;DHT22;28407;51.830;5.684;2023-04-01T02:38:52;11.80;90.10
42755;DHT22;28407;51.830;5.684;2023-04-01T02:40:58;11.70;90.10
42755;DHT22;28407;51.830;5.684;2023-04-01T02:42:59;11.70;90.10
42755;DHT22;28407;51.830;5.684;2023-04-01T02:45:00;11.70;90.10
42755;DHT22;28407;51.830;5.684;2023-04-01T02:47:01;11.70;90.10
42755;DHT22;28407;51.830;5.684;2023-04-01T02:49:02;11.70;90.10
42755;DHT22;28407;51.830;5.684;2023-04-01T02:51:03;11.70;90.10
42755;DHT22;28407;51.830;5.684;2023-04-01T02:53:04;11.70;90.10
42755;DHT22;28407;51.830;5.684;2023-04-01T02:55:06;11.70;90.10
42755;DHT22;28407;51.830;5.684;2023-04-01T02:57:07;11.70;90.10
42755;DHT22;28407;51.830;5.684;2023-04-01T02:59:08;11.70;90.10
42755;DHT22;28407;51.830;5.684;2023-04-01T03:01:08;11.70;90.10
42755;DHT22;28407;51.830;5.684;2023-04-01T03:03:09;11.70;90.10
42755;DHT22;28407;51.830;5.684;2023-04-01T03:05:10;11.70;90.10
42755;DHT22;28407;51.830;5.684;2023-04-01T03:07:11;11.70;90.10
42755;DHT22;28407;51.830;5.684;2023-04-01T03:09:11;11.70;90.10
42755;DHT22;28407;51.830;5.684;2023-04-01T03:11:13;11.70;90.10
42755;DHT22;28407;51.830;5.684;2023-04-01T03:13:13;11.60;90.10
42755;DHT22;28407;51.830;5.684;2023-04-01T03:15:14;11.70;90.10
42755;DHT22;28407;51.830;5.684;2023-04-01T03:17:15;11.70;90.10
42755;DHT22;28407;51.830;5.684;2023-04-01T03:19:16;11.60;90.10
42755;DHT22;28407;51.830;5.684;2023-04-01T03:21:21;11.60;90.10
42755;DHT22;28407;51.830;5.684;2023-04-01T03:23:23;11.60;90.10
42755;DHT22;28407;51.830;5.684;2023-04-01T03:25:24;11.60;90.10
42755;DHT22;28407;51.830;5.684;2023-04-01T03:27:25;11.60;90.10
42755;DHT22;28407;51.830;5.684;2023-04-01T03:29:26;11.60;90.10
42755;DHT22;28407;51.830;5.684;2023-04-01T03:31:27;11.60;90.10
42755;DHT22;28407;51.830;5.684;2023-04-01T03:33:31;11.60;90.10
42755;DHT22;28407;51.830;5.684;2023-04-01T03:35:32;11.60;90.10
42755;DHT22;28407;51.830;5.684;2023-04-01T03:37:32;11.60;90.10
42755;DHT22;28407;51.830;5.684;2023-04-01T03:39:33;11.60;90.10
42755;DHT22;28407;51.830;5.684;2023-04-01T03:41:36;11.60;90.10
42755;DHT22;28407;51.830;5.684;2023-04-01T03:43:38;11.60;90.10
42755;DHT22;28407;51.830;5.684;2023-04-01T03:45:46;11.60;90.10
42755;DHT22;28407;51.830;5.684;2023-04-01T03:47:46;11.60;90.10
42755;DHT22;28407;51.830;5.684;2023-04-01T03:49:47;11.60;90.10
42755;DHT22;28407;51.830;5.684;2023-04-01T03:51:48;11.60;90.10
42755;DHT22;28407;51.830;5.684;2023-04-01T03:53:49;11.60;90.10
42755;DHT22;28407;51.830;5.684;2023-04-01T03:55:50;11.60;90.10
42755;DHT22;28407;51.830;5.684;2023-04-01T03:57:51;11.60;90.00
42755;DHT22;28407;51.830;5.684;2023-04-01T03:59:53;11.60;90.10
42755;DHT22;28407;51.830;5.684;2023-04-01T04:01:53;11.60;90.00
42755;DHT22;28407;51.830;5.684;2023-04-01T04:03:54;11.60;90.00
42755;DHT22;28407;51.830;5.684;2023-04-01T04:05:56;11.60;90.00
42755;DHT22;28407;51.830;5.684;2023-04-01T04:07:57;11.60;90.10
42755;DHT22;28407;51.830;5.684;2023-04-01T04:09:58;11.60;90.00
42755;DHT22;28407;51.830;5.684;2023-04-01T04:12:00;11.60;90.00
42755;DHT22;28407;51.830;5.684;2023-04-01T04:14:01;11.60;90.00
42755;DHT22;28407;51.830;5.684;2023-04-01T04:16:03;11.50;90.00
42755;DHT22;28407;51.830;5.684;2023-04-01T04:18:04;11.50;90.10
42755;DHT22;28407;51.830;5.684;2023-04-01T04:20:05;11.50;90.10
42755;DHT22;28407;51.830;5.684;2023-04-01T04:22:06;11.50;90.00
42755;DHT22;28407;51.830;5.684;2023-04-01T04:24:07;11.50;90.10
42755;DHT22;28407;51.830;5.684;2023-04-01T04:26:33;11.50;90.10
42755;DHT22;28407;51.830;5.684;2023-04-01T04:28:34;11.50;90.00
42755;DHT22;28407;51.830;5.684;2023-04-01T04:30:35;11.50;90.00
42755;DHT22;28407;51.830;5.684;2023-04-01T04:32:37;11.50;90.00
42755;DHT22;28407;51.830;5.684;2023-04-01T04:34:38;11.50;90.00
42755;DHT22;28407;51.830;5.684;2023-04-01T04:36:39;11.50;90.00
42755;DHT22;28407;51.830;5.684;2023-04-01T04:38:40;11.50;90.00
42755;DHT22;28407;51.830;5.684;2023-04-01T04:40:42;11.50;90.00
42755;DHT22;28407;51.830;5.684;2023-04-01T04:42:43;11.50;90.00
42755;DHT22;28407;51.830;5.684;2023-04-01T04:44:47;11.50;90.00
42755;DHT22;28407;51.830;5.684;2023-04-01T04:46:48;11.50;90.00
42755;DHT22;28407;51.830;5.684;2023-04-01T04:48:50;11.50;90.00
42755;DHT22;28407;51.830;5.684;2023-04-01T04:50:51;11.50;90.00
42755;DHT22;28407;51.830;5.684;2023-04-01T04:52:54;11.50;90.00
42755;DHT22;28407;51.830;5.684;2023-04-01T04:54:55;11.40;90.10
42755;DHT22;28407;51.830;5.684;2023-04-01T04:56:55;11.40;90.10
42755;DHT22;28407;51.830;5.684;2023-04-01T04:58:58;11.40;90.10
42755;DHT22;28407;51.830;5.684;2023-04-01T05:01:14;11.40;90.10
42755;DHT22;28407;51.830;5.684;2023-04-01T05:03:14;11.40;90.10
42755;DHT22;28407;51.830;5.684;2023-04-01T05:05:15;11.40;90.10
42755;DHT22;28407;51.830;5.684;2023-04-01T05:07:16;11.40;90.10
42755;DHT22;28407;51.830;5.684;2023-04-01T05:09:17;11.40;90.10
42755;DHT22;28407;51.830;5.684;2023-04-01T05:11:19;11.40;90.10
42755;DHT22;28407;51.830;5.684;2023-04-01T05:13:21;11.40;90.10
42755;DHT22;28407;51.830;5.684;2023-04-01T05:15:22;11.40;90.10
42755;DHT22;28407;51.830;5.684;2023-04-01T05:17:22;11.40;90.10
42755;DHT22;28407;51.830;5.684;2023-04-01T05:19:23;11.40;90.00
42755;DHT22;28407;51.830;5.684;2023-04-01T05:21:24;11.40;90.00
42755;DHT22;28407;51.830;5.684;2023-04-01T05:23:26;11.40;90.00
42755;DHT22;28407;51.830;5.684;2023-04-01T05:25:26;11.50;90.10
42755;DHT22;28407;51.830;5.684;2023-04-01T05:27:27;11.40;90.10
42755;DHT22;28407;51.830;5.684;2023-04-01T05:29:28;11.50;90.10
42755;DHT22;28407;51.830;5.684;2023-04-01T05:31:36;11.50;90.10
42755;DHT22;28407;51.830;5.684;2023-04-01T05:33:38;11.50;90.10
42755;DHT22;28407;51.830;5.684;2023-04-01T05:35:40;11.50;90.10
42755;DHT22;28407;51.830;5.684;2023-04-01T05:37:41;11.60;90.10
42755;DHT22;28407;51.830;5.684;2023-04-01T05:39:41;11.60;90.00
42755;DHT22;28407;51.830;5.684;2023-04-01T05:41:42;11.60;90.00
42755;DHT22;28407;51.830;5.684;2023-04-01T05:43:43;11.60;90.00
42755;DHT22;28407;51.830;5.684;2023-04-01T05:46:02;11.60;90.00
42755;DHT22;28407;51.830;5.684;2023-04-01T05:48:10;11.60;90.00
42755;DHT22;28407;51.830;5.684;2023-04-01T05:50:13;11.60;90.00
42755;DHT22;28407;51.830;5.684;2023-04-01T05:52:14;11.70;90.00
42755;DHT22;28407;51.830;5.684;2023-04-01T05:54:15;11.60;90.00
42755;DHT22;28407;51.830;5.684;2023-04-01T05:56:16;11.60;90.00
42755;DHT22;28407;51.830;5.684;2023-04-01T05:58:22;11.70;90.10
42755;DHT22;28407;51.830;5.684;2023-04-01T06:00:22;11.70;90.10
42755;DHT22;28407;51.830;5.684;2023-04-01T06:02:24;11.70;90.10
42755;DHT22;28407;51.830;5.684;2023-04-01T06:04:24;11.70;90.10
42755;DHT22;28407;51.830;5.684;2023-04-01T06:06:28;11.70;90.10
42755;DHT22;28407;51.830;5.684;2023-04-01T06:08:37;11.70;90.10
42755;DHT22;28407;51.830;5.684;2023-04-01T06:12:56;11.70;90.10
42755;DHT22;28407;51.830;5.684;2023-04-01T06:15:10;11.70;90.00
42755;DHT22;28407;51.830;5.684;2023-04-01T06:27:27;11.80;90.00
42755;DHT22;28407;51.830;5.684;2023-04-01T06:34:20;11.80;90.00
42755;DHT22;28407;51.830;5.684;2023-04-01T06:36:49;11.80;90.00
42755;DHT22;28407;51.830;5.684;2023-04-01T06:39:10;11.90;90.00
42755;DHT22;28407;51.830;5.684;2023-04-01T06:43:37;11.90;90.00
42755;DHT22;28407;51.830;5.684;2023-04-01T06:46:16;11.90;90.00
42755;DHT22;28407;51.830;5.684;2023-04-01T06:51:27;11.90;90.00
42755;DHT22;28407;51.830;5.684;2023-04-01T06:54:12;11.90;90.00
42755;DHT22;28407;51.830;5.684;2023-04-01T06:56:34;11.90;90.00
42755;DHT22;28407;51.830;5.684;2023-04-01T06:59:04;11.90;90.00
42755;DHT22;28407;51.830;5.684;2023-04-01T07:01:14;11.90;90.00
42755;DHT22;28407;51.830;5.684;2023-04-01T07:05:41;11.90;90.00
42755;DHT22;28407;51.830;5.684;2023-04-01T07:07:48;11.90;90.00
42755;DHT22;28407;51.830;5.684;2023-04-01T07:09:55;11.90;90.00
42755;DHT22;28407;51.830;5.684;2023-04-01T07:12:18;11.90;90.00
42755;DHT22;28407;51.830;5.684;2023-04-01T07:14:41;11.90;90.00
42755;DHT22;28407;51.830;5.684;2023-04-01T07:16:51;11.90;90.00
42755;DHT22;28407;51.830;5.684;2023-04-01T07:19:22;11.90;90.10
42755;DHT22;28407;51.830;5.684;2023-04-01T07:21:44;11.90;90.10
42755;DHT22;28407;51.830;5.684;2023-04-01T07:23:59;11.90;90.10
42755;DHT22;28407;51.830;5.684;2023-04-01T07:26:22;11.80;90.10
42755;DHT22;28407;51.830;5.684;2023-04-01T07:28:39;11.90;90.10
42755;DHT22;28407;51.830;5.684;2023-04-01T07:34:09;11.90;90.00
42755;DHT22;28407;51.830;5.684;2023-04-01T07:39:04;11.90;90.10
42755;DHT22;28407;51.830;5.684;2023-04-01T07:44:16;11.90;90.00
42755;DHT22;28407;51.830;5.684;2023-04-01T07:49:10;11.90;90.10
42755;DHT22;28407;51.830;5.684;2023-04-01T07:58:12;11.90;90.10
42755;DHT22;28407;51.830;5.684;2023-04-01T08:05:41;11.90;90.10
42755;DHT22;28407;51.830;5.684;2023-04-01T08:07:59;11.90;90.10
42755;DHT22;28407;51.830;5.684;2023-04-01T08:13:26;11.90;90.10
42755;DHT22;28407;51.830;5.684;2023-04-01T08:16:02;11.90;90.10
42755;DHT22;28407;51.830;5.684;2023-04-01T08:20:46;11.90;90.10
42755;DHT22;28407;51.830;5.684;2023-04-01T08:22:57;11.90;90.10
42755;DHT22;28407;51.830;5.684;2023-04-01T08:25:16;11.90;90.10
42755;DHT22;28407;51.830;5.684;2023-04-01T08:29:46;11.90;90.10
42755;DHT22;28407;51.830;5.684;2023-04-01T08:32:17;12.00;90.10
42755;DHT22;28407;51.830;5.684;2023-04-01T08:34:24;12.00;90.00
42755;DHT22;28407;51.830;5.684;2023-04-01T08:36:50;12.00;90.00
42755;DHT22;28407;51.830;5.684;2023-04-01T08:39:58;12.00;90.00
42755;DHT22;28407;51.830;5.684;2023-04-01T08:44:43;12.10;90.00
42755;DHT22;28407;51.830;5.684;2023-04-01T08:47:20;12.10;90.00
42755;DHT22;28407;51.830;5.684;2023-04-01T08:54:02;12.10;90.00
42755;DHT22;28407;51.830;5.684;2023-04-01T08:58:55;12.20;90.00
42755;DHT22;28407;51.830;5.684;2023-04-01T09:10:57;12.20;90.00
42755;DHT22;28407;51.830;5.684;2023-04-01T09:13:44;12.20;90.00
42755;DHT22;28407;51.830;5.684;2023-04-01T09:27:32;12.30;90.00
42755;DHT22;28407;51.830;5.684;2023-04-01T09:34:52;12.30;90.00
42755;DHT22;28407;51.830;5.684;2023-04-01T09:37:31;12.30;90.00
42755;DHT22;28407;51.830;5.684;2023-04-01T09:42:38;12.30;90.00
42755;DHT22;28407;51.830;5.684;2023-04-01T09:44:58;12.30;90.00
42755;DHT22;28407;51.830;5.684;2023-04-01T09:47:25;12.30;90.00
42755;DHT22;28407;51.830;5.684;2023-04-01T09:52:10;12.30;90.00
42755;DHT22;28407;51.830;5.684;2023-04-01T10:08:44;12.30;90.00
42755;DHT22;28407;51.830;5.684;2023-04-01T10:11:13;12.30;90.10
42755;DHT22;28407;51.830;5.684;2023-04-01T10:18:27;12.30;90.10
42755;DHT22;28407;51.830;5.684;2023-04-01T10:20:45;12.30;90.10
42755;DHT22;28407;51.830;5.684;2023-04-01T10:25:19;12.30;90.10
42755;DHT22;28407;51.830;5.684;2023-04-01T10:27:39;12.30;90.10
42755;DHT22;28407;51.830;5.684;2023-04-01T10:42:21;12.40;90.10
42755;DHT22;28407;51.830;5.684;2023-04-01T10:49:47;12.40;90.00
42755;DHT22;28407;51.830;5.684;2023-04-01T10:52:11;12.50;90.10
42755;DHT22;28407;51.830;5.684;2023-04-01T10:54:47;12.50;90.10
42755;DHT22;28407;51.830;5.684;2023-04-01T10:57:48;12.50;90.10
42755;DHT22;28407;51.830;5.684;2023-04-01T11:10:59;12.50;90.00
42755;DHT22;28407;51.830;5.684;2023-04-01T11:13:40;12.50;90.10
42755;DHT22;28407;51.830;5.684;2023-04-01T11:26:09;12.50;90.10
42755;DHT22;28407;51.830;5.684;2023-04-01T11:31:45;12.50;90.10
42755;DHT22;28407;51.830;5.684;2023-04-01T11:34:05;12.50;90.10
42755;DHT22;28407;51.830;5.684;2023-04-01T11:36:25;12.50;90.10
42755;DHT22;28407;51.830;5.684;2023-04-01T11:38:39;12.60;90.10
42755;DHT22;28407;51.830;5.684;2023-04-01T11:41:23;12.60;90.10
42755;DHT22;28407;51.830;5.684;2023-04-01T11:43:49;12.70;90.10
42755;DHT22;28407;51.830;5.684;2023-04-01T11:46:28;12.70;90.10
42755;DHT22;28407;51.830;5.684;2023-04-01T11:55:19;12.80;90.10
42755;DHT22;28407;51.830;5.684;2023-04-01T12:00:22;12.80;90.00
42755;DHT22;28407;51.830;5.684;2023-04-01T12:03:09;12.80;90.00
42755;DHT22;28407;51.830;5.684;2023-04-01T12:05:26;12.70;90.20
42755;DHT22;28407;51.830;5.684;2023-04-01T12:08:00;12.80;90.10
42755;DHT22;28407;51.830;5.684;2023-04-01T12:10:17;12.80;90.10
42755;DHT22;28407;51.830;5.684;2023-04-01T12:14:40;12.80;90.10
42755;DHT22;28407;51.830;5.684;2023-04-01T12:17:00;12.80;90.10
42755;DHT22;28407;51.830;5.684;2023-04-01T12:19:23;12.90;90.10
42755;DHT22;28407;51.830;5.684;2023-04-01T12:21:35;12.90;90.00
42755;DHT22;28407;51.830;5.684;2023-04-01T12:23:42;13.00;90.00
42755;DHT22;28407;51.830;5.684;2023-04-01T12:38:31;13.10;90.00
42755;DHT22;28407;51.830;5.684;2023-04-01T12:49:42;13.00;90.00
42755;DHT22;28407;51.830;5.684;2023-04-01T12:52:05;13.00;90.00
42755;DHT22;28407;51.830;5.684;2023-04-01T12:59:23;13.00;90.00
42755;DHT22;28407;51.830;5.684;2023-04-01T13:01:52;13.00;90.30
42755;DHT22;28407;51.830;5.684;2023-04-01T13:06:25;13.00;90.00
42755;DHT22;28407;51.830;5.684;2023-04-01T13:15:51;13.00;90.00
42755;DHT22;28407;51.830;5.684;2023-04-01T13:18:24;13.00;90.00
42755;DHT22;28407;51.830;5.684;2023-04-01T13:20:44;13.00;90.00
42755;DHT22;28407;51.830;5.684;2023-04-01T13:25:27;13.00;90.00
42755;DHT22;28407;51.830;5.684;2023-04-01T13:27:46;13.00;90.00
42755;DHT22;28407;51.830;5.684;2023-04-01T13:32:29;13.10;90.00
42755;DHT22;28407;51.830;5.684;2023-04-01T13:44:31;13.10;90.00
42755;DHT22;28407;51.830;5.684;2023-04-01T13:49:05;13.10;90.00
42755;DHT22;28407;51.830;5.684;2023-04-01T13:51:40;13.10;89.90
42755;DHT22;28407;51.830;5.684;2023-04-01T13:58:57;13.20;89.80
42755;DHT22;28407;51.830;5.684;2023-04-01T14:07:49;13.20;89.50
42755;DHT22;28407;51.830;5.684;2023-04-01T14:17:14;13.30;89.60
42755;DHT22;28407;51.830;5.684;2023-04-01T14:21:43;13.30;89.60
42755;DHT22;28407;51.830;5.684;2023-04-01T14:24:06;13.20;89.60
42755;DHT22;28407;51.830;5.684;2023-04-01T14:28:45;13.20;89.60
42755;DHT22;28407;51.830;5.684;2023-04-01T14:40:20;13.20;89.80
42755;DHT22;28407;51.830;5.684;2023-04-01T14:44:51;13.20;89.80
42755;DHT22;28407;51.830;5.684;2023-04-01T14:47:22;13.20;89.80
42755;DHT22;28407;51.830;5.684;2023-04-01T14:49:37;13.20;89.80
42755;DHT22;28407;51.830;5.684;2023-04-01T14:51:40;13.20;89.80
42755;DHT22;28407;51.830;5.684;2023-04-01T14:53:51;13.20;89.80
42755;DHT22;28407;51.830;5.684;2023-04-01T14:55:56;13.20;89.80
42755;DHT22;28407;51.830;5.684;2023-04-01T14:58:09;13.20;89.80
42755;DHT22;28407;51.830;5.684;2023-04-01T15:00:15;13.20;89.80
42755;DHT22;28407;51.830;5.684;2023-04-01T15:07:05;13.20;89.80
42755;DHT22;28407;51.830;5.684;2023-04-01T15:12:01;13.20;89.90
42755;DHT22;28407;51.830;5.684;2023-04-01T15:21:09;13.20;89.90
42755;DHT22;28407;51.830;5.684;2023-04-01T15:23:28;13.20;89.80
42755;DHT22;28407;51.830;5.684;2023-04-01T15:28:19;13.30;89.80
42755;DHT22;28407;51.830;5.684;2023-04-01T15:30:28;13.30;89.70
42755;DHT22;28407;51.830;5.684;2023-04-01T15:32:52;13.30;89.70
42755;DHT22;28407;51.830;5.684;2023-04-01T15:35:30;13.30;89.80
42755;DHT22;28407;51.830;5.684;2023-04-01T15:40:11;13.20;89.70
42755;DHT22;28407;51.830;5.684;2023-04-01T15:42:40;13.30;89.80
42755;DHT22;28407;51.830;5.684;2023-04-01T15:46:54;13.20;89.80
42755;DHT22;28407;51.830;5.684;2023-04-01T15:51:11;13.20;89.80
42755;DHT22;28407;51.830;5.684;2023-04-01T15:56:28;13.20;89.80
42755;DHT22;28407;51.830;5.684;2023-04-01T16:00:57;13.20;89.70
42755;DHT22;28407;51.830;5.684;2023-04-01T16:03:24;13.20;89.70
42755;DHT22;28407;51.830;5.684;2023-04-01T16:10:19;13.30;89.70
42755;DHT22;28407;51.830;5.684;2023-04-01T16:17:10;13.30;89.80
42755;DHT22;28407;51.830;5.684;2023-04-01T16:19:24;13.20;89.80
42755;DHT22;28407;51.830;5.684;2023-04-01T16:26:36;13.20;89.80
42755;DHT22;28407;51.830;5.684;2023-04-01T16:29:16;13.20;89.80
42755;DHT22;28407;51.830;5.684;2023-04-01T16:33:32;13.10;89.90
42755;DHT22;28407;51.830;5.684;2023-04-01T16:38:43;13.10;90.00
42755;DHT22;28407;51.830;5.684;2023-04-01T16:41:11;13.10;90.00
42755;DHT22;28407;51.830;5.684;2023-04-01T16:43:38;13.10;90.00
42755;DHT22;28407;51.830;5.684;2023-04-01T16:45:43;13.10;90.00
42755;DHT22;28407;51.830;5.684;2023-04-01T16:47:56;13.00;90.00
42755;DHT22;28407;51.830;5.684;2023-04-01T16:50:24;13.00;90.00
42755;DHT22;28407;51.830;5.684;2023-04-01T16:55:16;13.00;90.00
42755;DHT22;28407;51.830;5.684;2023-04-01T16:57:25;13.00;90.00
42755;DHT22;28407;51.830;5.684;2023-04-01T16:59:47;13.00;90.00
42755;DHT22;28407;51.830;5.684;2023-04-01T17:01:57;12.90;90.00
42755;DHT22;28407;51.830;5.684;2023-04-01T17:04:12;13.00;90.00
42755;DHT22;28407;51.830;5.684;2023-04-01T17:08:23;12.90;90.00
42755;DHT22;28407;51.830;5.684;2023-04-01T17:12:43;12.90;90.10
42755;DHT22;28407;51.830;5.684;2023-04-01T17:17:17;12.90;90.10
42755;DHT22;28407;51.830;5.684;2023-04-01T17:24:32;12.90;90.00
42755;DHT22;28407;51.830;5.684;2023-04-01T17:26:45;12.90;90.00
42755;DHT22;28407;51.830;5.684;2023-04-01T17:28:57;12.90;90.00
42755;DHT22;28407;51.830;5.684;2023-04-01T17:33:25;12.90;90.00
42755;DHT22;28407;51.830;5.684;2023-04-01T17:40:00;12.90;90.00
42755;DHT22;28407;51.830;5.684;2023-04-01T17:55:15;12.60;89.90
42755;DHT22;28407;51.830;5.684;2023-04-01T18:02:24;12.50;90.00
42755;DHT22;28407;51.830;5.684;2023-04-01T18:04:37;12.40;89.90
42755;DHT22;28407;51.830;5.684;2023-04-01T18:18:55;12.30;89.90
42755;DHT22;28407;51.830;5.684;2023-04-01T18:21:20;12.30;90.20
42755;DHT22;28407;51.830;5.684;2023-04-01T18:23:39;12.20;89.90
42755;DHT22;28407;51.830;5.684;2023-04-01T18:25:44;12.20;89.80
42755;DHT22;28407;51.830;5.684;2023-04-01T18:28:06;12.20;89.90
42755;DHT22;28407;51.830;5.684;2023-04-01T18:30:17;12.10;89.80
42755;DHT22;28407;51.830;5.684;2023-04-01T18:32:43;12.10;89.80
42755;DHT22;28407;51.830;5.684;2023-04-01T18:37:31;12.10;89.90
42755;DHT22;28407;51.830;5.684;2023-04-01T18:39:39;12.10;89.90
42755;DHT22;28407;51.830;5.684;2023-04-01T18:42:06;12.10;89.80
42755;DHT22;28407;51.830;5.684;2023-04-01T18:44:36;12.00;89.60
42755;DHT22;28407;51.830;5.684;2023-04-01T18:46:47;12.00;89.60
42755;DHT22;28407;51.830;5.684;2023-04-01T18:51:20;11.90;89.50
42755;DHT22;28407;51.830;5.684;2023-04-01T18:55:41;11.90;89.60
42755;DHT22;28407;51.830;5.684;2023-04-01T18:58:05;11.90;89.50
42755;DHT22;28407;51.830;5.684;2023-04-01T19:00:20;11.90;89.50
42755;DHT22;28407;51.830;5.684;2023-04-01T19:02:45;11.90;89.50
42755;DHT22;28407;51.830;5.684;2023-04-01T19:05:05;11.90;89.50
42755;DHT22;28407;51.830;5.684;2023-04-01T19:07:40;11.90;89.50
42755;DHT22;28407;51.830;5.684;2023-04-01T19:09:46;11.80;89.50
42755;DHT22;28407;51.830;5.684;2023-04-01T19:16:48;11.80;89.50
42755;DHT22;28407;51.830;5.684;2023-04-01T19:19:19;11.80;89.30
42755;DHT22;28407;51.830;5.684;2023-04-01T19:21:32;11.70;89.40
42755;DHT22;28407;51.830;5.684;2023-04-01T19:23:50;11.70;89.40
42755;DHT22;28407;51.830;5.684;2023-04-01T19:26:20;11.70;89.40
42755;DHT22;28407;51.830;5.684;2023-04-01T19:28:52;11.70;89.30
42755;DHT22;28407;51.830;5.684;2023-04-01T19:31:22;11.60;89.30
42755;DHT22;28407;51.830;5.684;2023-04-01T19:36:15;11.60;89.30
42755;DHT22;28407;51.830;5.684;2023-04-01T19:38:23;11.60;89.20
42755;DHT22;28407;51.830;5.684;2023-04-01T19:40:37;11.50;89.00
42755;DHT22;28407;51.830;5.684;2023-04-01T19:43:07;11.50;89.10
42755;DHT22;28407;51.830;5.684;2023-04-01T19:45:25;11.50;89.20
42755;DHT22;28407;51.830;5.684;2023-04-01T19:47:48;11.50;89.10
42755;DHT22;28407;51.830;5.684;2023-04-01T19:56:39;11.50;88.90
42755;DHT22;28407;51.830;5.684;2023-04-01T19:59:10;11.50;89.00
42755;DHT22;28407;51.830;5.684;2023-04-01T20:01:33;11.50;89.00
42755;DHT22;28407;51.830;5.684;2023-04-01T20:03:58;11.50;88.90
42755;DHT22;28407;51.830;5.684;2023-04-01T20:08:51;11.40;88.70
42755;DHT22;28407;51.830;5.684;2023-04-01T20:13:33;11.40;88.70
42755;DHT22;28407;51.830;5.684;2023-04-01T20:15:42;11.40;88.70
42755;DHT22;28407;51.830;5.684;2023-04-01T20:17:45;11.30;88.70
42755;DHT22;28407;51.830;5.684;2023-04-01T20:20:00;11.30;88.50
42755;DHT22;28407;51.830;5.684;2023-04-01T20:22:16;11.30;88.60
42755;DHT22;28407;51.830;5.684;2023-04-01T20:25:05;11.30;88.60
42755;DHT22;28407;51.830;5.684;2023-04-01T20:26:50;11.30;88.60
42755;DHT22;28407;51.830;5.684;2023-04-01T20:31:30;11.20;88.70